sensor_id;sensor_type;location;lat;lon;timestamp;pressure;altitude;pressure_sealevel;temperature;humidity
74794;BME280;63320;50.768;6.724;2022-11-15T00:01:06;99603.13;;;10.43;82.60
74794;BME280;63320;50.768;6.724;2022-11-15T00:03:32;99598.53;;;10.46;82.69
74794;BME280;63320;50.768;6.724;2022-11-15T00:06:01;99598.63;;;10.45;82.40
74794;BME280;63320;50.768;6.724;2022-11-15T00:08:30;99598.06;;;10.40;82.67
74794;BME280;63320;50.768;6.724;2022-11-15T00:10:56;99595.59;;;10.36;82.79
74794;BME280;63320;50.768;6.724;2022-11-15T00:13:21;99593.06;;;10.35;82.83
74794;BME280;63320;50.768;6.724;2022-11-15T00:15:46;99601.69;;;10.37;83.10
74794;BME280;63320;50.768;6.724;2022-11-15T00:18:13;99588.44;;;10.38;83.04
74794;BME280;63320;50.768;6.724;2022-11-15T00:20:38;99588.38;;;10.40;83.15
74794;BME280;63320;50.768;6.724;2022-11-15T00:23:04;99583.97;;;10.41;82.85
74794;BME280;63320;50.768;6.724;2022-11-15T00:25:31;99589.13;;;10.42;83.18
74794;BME280;63320;50.768;6.724;2022-11-15T00:27:57;99583.72;;;10.45;82.99
74794;BME280;63320;50.768;6.724;2022-11-15T00:30:23;99578.00;;;10.53;82.75
74794;BME280;63320;50.768;6.724;2022-11-15T00:32:48;99580.56;;;10.54;82.73
74794;BME280;63320;50.768;6.724;2022-11-15T00:35:14;99574.09;;;10.60;82.63
74794;BME280;63320;50.768;6.724;2022-11-15T00:37:39;99563.09;;;10.68;82.83
74794;BME280;63320;50.768;6.724;2022-11-15T00:40:06;99569.56;;;10.62;82.65
74794;BME280;63320;50.768;6.724;2022-11-15T00:42:33;99558.69;;;10.68;82.77
74794;BME280;63320;50.768;6.724;2022-11-15T00:44:58;99565.63;;;10.69;82.72
74794;BME280;63320;50.768;6.724;2022-11-15T00:47:24;99565.72;;;10.68;82.58
74794;BME280;63320;50.768;6.724;2022-11-15T00:49:49;99568.75;;;10.76;82.42
74794;BME280;63320;50.768;6.724;2022-11-15T00:52:15;99576.91;;;10.71;82.51
74794;BME280;63320;50.768;6.724;2022-11-15T00:54:40;99568.00;;;10.74;82.50
74794;BME280;63320;50.768;6.724;2022-11-15T00:57:05;99569.78;;;10.73;82.39
74794;BME280;63320;50.768;6.724;2022-11-15T00:59:32;99573.72;;;10.66;82.64
74794;BME280;63320;50.768;6.724;2022-11-15T01:01:57;99568.47;;;10.66;82.66
74794;BME280;63320;50.768;6.724;2022-11-15T01:04:23;99563.19;;;10.66;82.87
74794;BME280;63320;50.768;6.724;2022-11-15T01:06:48;99572.78;;;10.67;82.54
74794;BME280;63320;50.768;6.724;2022-11-15T01:09:13;99571.94;;;10.67;82.74
74794;BME280;63320;50.768;6.724;2022-11-15T01:11:39;99568.63;;;10.63;82.87
74794;BME280;63320;50.768;6.724;2022-11-15T01:14:04;99562.63;;;10.61;82.99
74794;BME280;63320;50.768;6.724;2022-11-15T01:16:31;99566.94;;;10.62;83.20
74794;BME280;63320;50.768;6.724;2022-11-15T01:18:56;99566.78;;;10.65;83.17
74794;BME280;63320;50.768;6.724;2022-11-15T01:21:21;99562.25;;;10.67;83.30
74794;BME280;63320;50.768;6.724;2022-11-15T01:23:47;99559.47;;;10.70;83.22
74794;BME280;63320;50.768;6.724;2022-11-15T01:26:14;99559.53;;;10.69;83.06
74794;BME280;63320;50.768;6.724;2022-11-15T01:28:41;99555.31;;;10.66;83.37
74794;BME280;63320;50.768;6.724;2022-11-15T01:31:10;99551.91;;;10.64;83.54
74794;BME280;63320;50.768;6.724;2022-11-15T01:33:38;99558.03;;;10.65;83.38
74794;BME280;63320;50.768;6.724;2022-11-15T01:36:03;99552.59;;;10.68;83.96
74794;BME280;63320;50.768;6.724;2022-11-15T01:38:29;99551.56;;;10.70;83.89
74794;BME280;63320;50.768;6.724;2022-11-15T01:40:54;99549.84;;;10.69;84.06
74794;BME280;63320;50.768;6.724;2022-11-15T01:43:25;99543.69;;;10.70;84.03
74794;BME280;63320;50.768;6.724;2022-11-15T01:45:53;99546.09;;;10.73;83.82
74794;BME280;63320;50.768;6.724;2022-11-15T01:48:21;99540.94;;;10.72;83.97
74794;BME280;63320;50.768;6.724;2022-11-15T01:50:49;99545.47;;;10.70;83.95
74794;BME280;63320;50.768;6.724;2022-11-15T01:53:15;99548.75;;;10.73;83.90
74794;BME280;63320;50.768;6.724;2022-11-15T01:55:40;99548.56;;;10.76;83.90
74794;BME280;63320;50.768;6.724;2022-11-15T01:58:06;99546.50;;;10.81;83.64
74794;BME280;63320;50.768;6.724;2022-11-15T02:00:32;99544.81;;;10.80;83.75
74794;BME280;63320;50.768;6.724;2022-11-15T02:02:58;99551.19;;;10.76;83.63
74794;BME280;63320;50.768;6.724;2022-11-15T02:05:23;99541.34;;;10.80;84.00
74794;BME280;63320;50.768;6.724;2022-11-15T02:07:51;99539.06;;;10.74;83.78
74794;BME280;63320;50.768;6.724;2022-11-15T02:10:18;99528.66;;;10.72;84.10
74794;BME280;63320;50.768;6.724;2022-11-15T02:12:45;99526.03;;;10.72;83.97
74794;BME280;63320;50.768;6.724;2022-11-15T02:15:10;99517.13;;;10.75;84.14
74794;BME280;63320;50.768;6.724;2022-11-15T02:17:56;99510.25;;;10.72;84.10
74794;BME280;63320;50.768;6.724;2022-11-15T02:20:39;99521.03;;;10.68;84.18
74794;BME280;63320;50.768;6.724;2022-11-15T02:26:15;99521.50;;;10.60;84.07
74794;BME280;63320;50.768;6.724;2022-11-15T02:28:50;99518.09;;;10.58;84.13
74794;BME280;63320;50.768;6.724;2022-11-15T02:31:24;99519.16;;;10.55;84.08
74794;BME280;63320;50.768;6.724;2022-11-15T02:34:00;99516.41;;;10.57;84.20
74794;BME280;63320;50.768;6.724;2022-11-15T02:36:35;99506.94;;;10.54;84.14
74794;BME280;63320;50.768;6.724;2022-11-15T02:39:07;99506.28;;;10.51;84.43
74794;BME280;63320;50.768;6.724;2022-11-15T02:41:39;99507.28;;;10.48;84.26
74794;BME280;63320;50.768;6.724;2022-11-15T02:44:12;99504.84;;;10.45;84.23
74794;BME280;63320;50.768;6.724;2022-11-15T02:46:42;99507.50;;;10.45;84.20
74794;BME280;63320;50.768;6.724;2022-11-15T02:49:10;99503.06;;;10.46;84.48
74794;BME280;63320;50.768;6.724;2022-11-15T02:51:36;99502.13;;;10.47;84.40
74794;BME280;63320;50.768;6.724;2022-11-15T02:54:02;99507.38;;;10.47;84.17
74794;BME280;63320;50.768;6.724;2022-11-15T02:56:27;99511.69;;;10.48;84.20
74794;BME280;63320;50.768;6.724;2022-11-15T02:59:13;99503.06;;;10.46;84.61
74794;BME280;63320;50.768;6.724;2022-11-15T03:01:54;99505.59;;;10.47;84.73
74794;BME280;63320;50.768;6.724;2022-11-15T03:04:30;99496.88;;;10.47;84.44
74794;BME280;63320;50.768;6.724;2022-11-15T03:07:07;99489.81;;;10.47;84.32
74794;BME280;63320;50.768;6.724;2022-11-15T03:09:40;99490.59;;;10.49;84.23
74794;BME280;63320;50.768;6.724;2022-11-15T03:12:12;99487.19;;;10.47;84.18
74794;BME280;63320;50.768;6.724;2022-11-15T03:14:47;99482.88;;;10.46;84.60
74794;BME280;63320;50.768;6.724;2022-11-15T03:17:22;99480.84;;;10.51;84.41
74794;BME280;63320;50.768;6.724;2022-11-15T03:19:50;99489.72;;;10.49;84.47
74794;BME280;63320;50.768;6.724;2022-11-15T03:22:18;99482.63;;;10.51;84.35
74794;BME280;63320;50.768;6.724;2022-11-15T03:24:47;99488.03;;;10.48;84.55
74794;BME280;63320;50.768;6.724;2022-11-15T03:27:20;99482.41;;;10.54;84.29
74794;BME280;63320;50.768;6.724;2022-11-15T03:29:51;99482.63;;;10.51;84.32
74794;BME280;63320;50.768;6.724;2022-11-15T03:32:23;99493.88;;;10.53;84.34
74794;BME280;63320;50.768;6.724;2022-11-15T03:34:52;99486.25;;;10.48;84.44
74794;BME280;63320;50.768;6.724;2022-11-15T03:37:22;99480.00;;;10.51;84.44
74794;BME280;63320;50.768;6.724;2022-11-15T03:39:49;99476.03;;;10.58;84.37
74794;BME280;63320;50.768;6.724;2022-11-15T03:42:21;99467.78;;;10.64;84.19
74794;BME280;63320;50.768;6.724;2022-11-15T03:44:51;99469.22;;;10.70;84.49
74794;BME280;63320;50.768;6.724;2022-11-15T03:47:25;99474.28;;;10.73;84.10
74794;BME280;63320;50.768;6.724;2022-11-15T03:49:56;99475.03;;;10.75;84.18
74794;BME280;63320;50.768;6.724;2022-11-15T03:52:23;99467.16;;;10.75;84.33
74794;BME280;63320;50.768;6.724;2022-11-15T03:54:50;99468.84;;;10.76;84.07
74794;BME280;63320;50.768;6.724;2022-11-15T03:57:17;99467.06;;;10.76;83.97
74794;BME280;63320;50.768;6.724;2022-11-15T03:59:42;99457.56;;;10.74;83.98
74794;BME280;63320;50.768;6.724;2022-11-15T04:02:08;99457.66;;;10.72;84.17
74794;BME280;63320;50.768;6.724;2022-11-15T04:04:34;99457.56;;;10.74;84.25
74794;BME280;63320;50.768;6.724;2022-11-15T04:07:00;99453.25;;;10.73;83.95
74794;BME280;63320;50.768;6.724;2022-11-15T04:09:25;99451.66;;;10.70;84.11
74794;BME280;63320;50.768;6.724;2022-11-15T04:11:50;99451.66;;;10.70;84.24
74794;BME280;63320;50.768;6.724;2022-11-15T04:14:16;99446.56;;;10.67;84.36
74794;BME280;63320;50.768;6.724;2022-11-15T04:16:41;99450.72;;;10.71;84.42
74794;BME280;63320;50.768;6.724;2022-11-15T04:19:06;99450.88;;;10.68;84.30
74794;BME280;63320;50.768;6.724;2022-11-15T04:21:33;99449.59;;;10.75;84.16
74794;BME280;63320;50.768;6.724;2022-11-15T04:23:58;99453.06;;;10.76;84.44
74794;BME280;63320;50.768;6.724;2022-11-15T04:26:24;99460.09;;;10.75;84.18
74794;BME280;63320;50.768;6.724;2022-11-15T04:28:49;99458.31;;;10.76;84.28
74794;BME280;63320;50.768;6.724;2022-11-15T04:31:15;99464.41;;;10.76;84.29
74794;BME280;63320;50.768;6.724;2022-11-15T04:33:40;99464.25;;;10.79;84.24
74794;BME280;63320;50.768;6.724;2022-11-15T04:36:06;99456.94;;;10.84;83.83
74794;BME280;63320;50.768;6.724;2022-11-15T04:38:33;99463.94;;;10.84;83.58
74794;BME280;63320;50.768;6.724;2022-11-15T04:40:58;99467.50;;;10.83;83.62
74794;BME280;63320;50.768;6.724;2022-11-15T04:43:24;99470.16;;;10.83;83.41
74794;BME280;63320;50.768;6.724;2022-11-15T04:45:49;99479.94;;;10.81;83.47
74794;BME280;63320;50.768;6.724;2022-11-15T04:48:15;99471.38;;;10.77;83.53
74794;BME280;63320;50.768;6.724;2022-11-15T04:50:40;99475.88;;;10.75;83.38
74794;BME280;63320;50.768;6.724;2022-11-15T04:53:05;99471.38;;;10.77;83.42
74794;BME280;63320;50.768;6.724;2022-11-15T04:55:32;99475.88;;;10.75;83.19
74794;BME280;63320;50.768;6.724;2022-11-15T04:57:58;99468.06;;;10.74;83.14
74794;BME280;63320;50.768;6.724;2022-11-15T05:00:23;99470.06;;;10.70;83.25
74794;BME280;63320;50.768;6.724;2022-11-15T05:02:49;99463.00;;;10.71;83.28
74794;BME280;63320;50.768;6.724;2022-11-15T05:05:14;99461.34;;;10.70;83.24
74794;BME280;63320;50.768;6.724;2022-11-15T05:07:39;99462.34;;;10.67;83.13
74794;BME280;63320;50.768;6.724;2022-11-15T05:10:05;99464.13;;;10.67;83.11
74794;BME280;63320;50.768;6.724;2022-11-15T05:12:32;99465.06;;;10.66;83.06
74794;BME280;63320;50.768;6.724;2022-11-15T05:14:57;99465.34;;;10.61;83.12
74794;BME280;63320;50.768;6.724;2022-11-15T05:17:23;99465.34;;;10.61;83.14
74794;BME280;63320;50.768;6.724;2022-11-15T05:19:48;99467.22;;;10.59;83.08
74794;BME280;63320;50.768;6.724;2022-11-15T05:22:13;99472.41;;;10.60;82.97
74794;BME280;63320;50.768;6.724;2022-11-15T05:24:38;99474.25;;;10.58;82.82
74794;BME280;63320;50.768;6.724;2022-11-15T05:27:04;99470.78;;;10.58;82.47
74794;BME280;63320;50.768;6.724;2022-11-15T05:29:30;99469.28;;;10.54;82.27
74794;BME280;63320;50.768;6.724;2022-11-15T05:31:56;99466.66;;;10.54;82.21
74794;BME280;63320;50.768;6.724;2022-11-15T05:34:21;99473.69;;;10.53;81.95
74794;BME280;63320;50.768;6.724;2022-11-15T05:36:46;99467.84;;;10.48;82.00
74794;BME280;63320;50.768;6.724;2022-11-15T05:39:12;99469.66;;;10.48;81.99
74794;BME280;63320;50.768;6.724;2022-11-15T05:41:40;99476.97;;;10.43;81.77
74794;BME280;63320;50.768;6.724;2022-11-15T05:44:09;99472.75;;;10.40;82.08
74794;BME280;63320;50.768;6.724;2022-11-15T05:46:38;99465.78;;;10.39;82.05
74794;BME280;63320;50.768;6.724;2022-11-15T05:49:04;99458.56;;;10.43;81.63
74794;BME280;63320;50.768;6.724;2022-11-15T05:51:31;99459.66;;;10.38;81.46
74794;BME280;63320;50.768;6.724;2022-11-15T05:53:58;99460.44;;;10.41;81.20
74794;BME280;63320;50.768;6.724;2022-11-15T05:56:24;99471.03;;;10.39;80.78
74794;BME280;63320;50.768;6.724;2022-11-15T05:58:49;99479.22;;;10.34;80.79
74794;BME280;63320;50.768;6.724;2022-11-15T06:01:16;99468.78;;;10.33;80.83
74794;BME280;63320;50.768;6.724;2022-11-15T06:03:43;99474.28;;;10.28;80.67
74794;BME280;63320;50.768;6.724;2022-11-15T06:06:08;99479.41;;;10.16;80.78
74794;BME280;63320;50.768;6.724;2022-11-15T06:08:34;99477.56;;;10.02;80.64
74794;BME280;63320;50.768;6.724;2022-11-15T06:11:03;99483.53;;;9.90;81.10
74794;BME280;63320;50.768;6.724;2022-11-15T06:13:29;99486.56;;;9.98;80.69
74794;BME280;63320;50.768;6.724;2022-11-15T06:15:55;99489.69;;;9.89;80.62
74794;BME280;63320;50.768;6.724;2022-11-15T06:18:20;99496.72;;;9.88;80.64
74794;BME280;63320;50.768;6.724;2022-11-15T06:20:47;99494.53;;;9.96;80.42
74794;BME280;63320;50.768;6.724;2022-11-15T06:23:12;99491.81;;;9.98;80.29
74794;BME280;63320;50.768;6.724;2022-11-15T06:25:37;99499.69;;;9.98;79.98
74794;BME280;63320;50.768;6.724;2022-11-15T06:28:03;99501.56;;;9.96;79.83
74794;BME280;63320;50.768;6.724;2022-11-15T06:30:29;99491.22;;;9.93;79.63
74794;BME280;63320;50.768;6.724;2022-11-15T06:32:59;99499.94;;;9.93;79.77
74794;BME280;63320;50.768;6.724;2022-11-15T06:35:24;99496.84;;;9.86;79.16
74794;BME280;63320;50.768;6.724;2022-11-15T06:37:51;99493.19;;;9.89;79.17
74794;BME280;63320;50.768;6.724;2022-11-15T06:40:16;99495.72;;;9.91;79.37
74794;BME280;63320;50.768;6.724;2022-11-15T06:42:42;99500.78;;;9.94;79.17
74794;BME280;63320;50.768;6.724;2022-11-15T06:45:07;99491.69;;;9.85;79.20
74794;BME280;63320;50.768;6.724;2022-11-15T06:47:33;99492.28;;;9.74;79.00
74794;BME280;63320;50.768;6.724;2022-11-15T06:49:58;99492.53;;;9.70;79.14
74794;BME280;63320;50.768;6.724;2022-11-15T06:52:23;99492.44;;;9.71;79.38
74794;BME280;63320;50.768;6.724;2022-11-15T06:54:50;99496.41;;;9.78;78.99
74794;BME280;63320;50.768;6.724;2022-11-15T06:57:15;99497.28;;;9.79;79.13
74794;BME280;63320;50.768;6.724;2022-11-15T06:59:41;99497.28;;;9.79;78.90
74794;BME280;63320;50.768;6.724;2022-11-15T07:02:11;99504.97;;;9.82;79.11
74794;BME280;63320;50.768;6.724;2022-11-15T07:04:37;99510.91;;;9.85;78.66
74794;BME280;63320;50.768;6.724;2022-11-15T07:07:02;99501.34;;;9.84;78.41
74794;BME280;63320;50.768;6.724;2022-11-15T07:09:27;99508.28;;;9.85;78.36
74794;BME280;63320;50.768;6.724;2022-11-15T07:11:54;99502.84;;;9.89;78.05
74794;BME280;63320;50.768;6.724;2022-11-15T07:14:19;99510.06;;;9.85;78.29
74794;BME280;63320;50.768;6.724;2022-11-15T07:16:45;99509.03;;;9.88;78.42
74794;BME280;63320;50.768;6.724;2022-11-15T07:19:10;99512.75;;;9.83;78.35
74794;BME280;63320;50.768;6.724;2022-11-15T07:21:36;99522.34;;;9.84;78.16
74794;BME280;63320;50.768;6.724;2022-11-15T07:24:01;99527.00;;;9.79;78.08
74794;BME280;63320;50.768;6.724;2022-11-15T07:26:26;99525.22;;;9.80;78.14
74794;BME280;63320;50.768;6.724;2022-11-15T07:28:53;99529.44;;;9.82;77.87
74794;BME280;63320;50.768;6.724;2022-11-15T07:31:18;99540.53;;;9.88;77.58
74794;BME280;63320;50.768;6.724;2022-11-15T07:33:44;99544.25;;;9.83;77.79
74794;BME280;63320;50.768;6.724;2022-11-15T07:36:09;99544.34;;;9.82;77.82
74794;BME280;63320;50.768;6.724;2022-11-15T07:38:35;99545.78;;;9.88;77.90
74794;BME280;63320;50.768;6.724;2022-11-15T07:41:02;99541.72;;;9.98;77.06
74794;BME280;63320;50.768;6.724;2022-11-15T07:43:28;99552.91;;;10.01;76.99
74794;BME280;63320;50.768;6.724;2022-11-15T07:45:56;99546.59;;;10.04;76.33
74794;BME280;63320;50.768;6.724;2022-11-15T07:48:21;99549.06;;;10.07;76.24
74794;BME280;63320;50.768;6.724;2022-11-15T07:50:46;99548.38;;;10.03;76.46
74794;BME280;63320;50.768;6.724;2022-11-15T07:53:12;99546.34;;;10.08;76.53
74794;BME280;63320;50.768;6.724;2022-11-15T07:55:39;99545.00;;;10.01;76.58
74794;BME280;63320;50.768;6.724;2022-11-15T07:58:06;99540.50;;;10.03;76.89
74794;BME280;63320;50.768;6.724;2022-11-15T08:00:33;99536.78;;;10.07;76.49
74794;BME280;63320;50.768;6.724;2022-11-15T08:03:04;99538.47;;;10.08;76.85
74794;BME280;63320;50.768;6.724;2022-11-15T08:05:30;99546.34;;;10.08;76.54
74794;BME280;63320;50.768;6.724;2022-11-15T08:07:55;99557.03;;;10.05;76.50
74794;BME280;63320;50.768;6.724;2022-11-15T08:10:21;99550.59;;;10.11;76.53
74794;BME280;63320;50.768;6.724;2022-11-15T08:12:46;99548.66;;;10.15;75.93
74794;BME280;63320;50.768;6.724;2022-11-15T08:15:12;99546.28;;;10.10;76.00
74794;BME280;63320;50.768;6.724;2022-11-15T08:17:37;99548.56;;;10.16;75.54
74794;BME280;63320;50.768;6.724;2022-11-15T08:20:05;99542.44;;;10.16;75.08
74794;BME280;63320;50.768;6.724;2022-11-15T08:22:30;99537.00;;;10.19;75.34
74794;BME280;63320;50.768;6.724;2022-11-15T08:24:55;99531.50;;;10.23;74.93
74794;BME280;63320;50.768;6.724;2022-11-15T08:27:21;99530.50;;;10.26;75.08
74794;BME280;63320;50.768;6.724;2022-11-15T08:29:49;99527.03;;;10.25;75.25
74794;BME280;63320;50.768;6.724;2022-11-15T08:32:14;99526.84;;;10.28;75.29
74794;BME280;63320;50.768;6.724;2022-11-15T08:34:39;99514.47;;;10.30;75.04
74794;BME280;63320;50.768;6.724;2022-11-15T08:37:06;99514.56;;;10.29;75.39
74794;BME280;63320;50.768;6.724;2022-11-15T08:39:31;99514.47;;;10.30;75.32
74794;BME280;63320;50.768;6.724;2022-11-15T08:41:57;99513.91;;;10.25;75.42
74794;BME280;63320;50.768;6.724;2022-11-15T08:44:23;99504.91;;;10.29;75.48
74794;BME280;63320;50.768;6.724;2022-11-15T08:46:48;99507.59;;;10.28;75.20
74794;BME280;63320;50.768;6.724;2022-11-15T08:49:13;99504.44;;;10.37;75.05
74794;BME280;63320;50.768;6.724;2022-11-15T08:51:39;99513.06;;;10.39;74.79
74794;BME280;63320;50.768;6.724;2022-11-15T08:54:05;99515.81;;;10.37;74.33
74794;BME280;63320;50.768;6.724;2022-11-15T08:56:31;99512.44;;;10.35;74.03
74794;BME280;63320;50.768;6.724;2022-11-15T08:58:56;99504.19;;;10.42;72.94
74794;BME280;63320;50.768;6.724;2022-11-15T09:01:22;99501.13;;;10.49;72.46
74794;BME280;63320;50.768;6.724;2022-11-15T09:03:47;99493.03;;;10.52;72.21
74794;BME280;63320;50.768;6.724;2022-11-15T09:06:13;99494.06;;;10.50;72.14
74794;BME280;63320;50.768;6.724;2022-11-15T09:08:38;99493.88;;;10.53;71.38
74794;BME280;63320;50.768;6.724;2022-11-15T09:11:06;99497.06;;;10.58;70.94
74794;BME280;63320;50.768;6.724;2022-11-15T09:13:32;99497.75;;;10.61;70.54
74794;BME280;63320;50.768;6.724;2022-11-15T09:15:57;99496.53;;;10.67;70.32
74794;BME280;63320;50.768;6.724;2022-11-15T09:18:23;99491.38;;;10.66;69.40
74794;BME280;63320;50.768;6.724;2022-11-15T09:20:48;99486.19;;;10.64;69.31
74794;BME280;63320;50.768;6.724;2022-11-15T09:23:13;99493.16;;;10.65;69.47
74794;BME280;63320;50.768;6.724;2022-11-15T09:25:39;99492.94;;;10.68;69.05
74794;BME280;63320;50.768;6.724;2022-11-15T09:28:07;99485.00;;;10.70;68.77
74794;BME280;63320;50.768;6.724;2022-11-15T09:30:33;99485.63;;;10.73;68.55
74794;BME280;63320;50.768;6.724;2022-11-15T09:32:58;99482.16;;;10.73;68.35
74794;BME280;63320;50.768;6.724;2022-11-15T09:35:24;99471.38;;;10.77;67.67
74794;BME280;63320;50.768;6.724;2022-11-15T09:37:49;99483.66;;;10.77;67.72
74794;BME280;63320;50.768;6.724;2022-11-15T09:40:16;99464.41;;;10.76;67.33
74794;BME280;63320;50.768;6.724;2022-11-15T09:42:54;99464.25;;;10.79;67.68
74794;BME280;63320;50.768;6.724;2022-11-15T09:45:30;99457.19;;;10.80;68.25
74794;BME280;63320;50.768;6.724;2022-11-15T09:48:04;99455.22;;;10.83;68.42
74794;BME280;63320;50.768;6.724;2022-11-15T09:50:38;99441.69;;;10.89;67.46
74794;BME280;63320;50.768;6.724;2022-11-15T09:53:09;99444.13;;;10.93;66.70
74794;BME280;63320;50.768;6.724;2022-11-15T09:55:41;99437.19;;;10.92;66.28
74794;BME280;63320;50.768;6.724;2022-11-15T09:58:17;99445.53;;;10.98;64.49
74794;BME280;63320;50.768;6.724;2022-11-15T10:00:47;99444.28;;;11.04;63.49
74794;BME280;63320;50.768;6.724;2022-11-15T10:03:15;99440.75;;;11.05;62.98
74794;BME280;63320;50.768;6.724;2022-11-15T10:05:43;99430.84;;;11.08;62.91
74794;BME280;63320;50.768;6.724;2022-11-15T10:08:33;99437.50;;;11.14;62.14
74794;BME280;63320;50.768;6.724;2022-11-15T10:11:02;99440.34;;;11.25;60.17
74794;BME280;63320;50.768;6.724;2022-11-15T10:13:32;99435.44;;;11.19;60.15
74794;BME280;63320;50.768;6.724;2022-11-15T10:16:07;99431.50;;;11.26;60.55
74794;BME280;63320;50.768;6.724;2022-11-15T10:18:44;99422.66;;;11.27;61.07
74794;BME280;63320;50.768;6.724;2022-11-15T10:21:17;99424.81;;;11.35;60.21
74794;BME280;63320;50.768;6.724;2022-11-15T10:23:43;99419.44;;;11.36;59.63
74794;BME280;63320;50.768;6.724;2022-11-15T10:26:11;99413.41;;;11.34;60.05
74794;BME280;63320;50.768;6.724;2022-11-15T10:28:39;99411.97;;;11.43;60.34
74794;BME280;63320;50.768;6.724;2022-11-15T10:31:21;99413.03;;;11.40;60.51
74794;BME280;63320;50.768;6.724;2022-11-15T10:33:48;99398.53;;;11.48;60.06
74794;BME280;63320;50.768;6.724;2022-11-15T10:36:21;99404.84;;;11.45;60.25
74794;BME280;63320;50.768;6.724;2022-11-15T10:38:52;99397.78;;;11.46;60.69
74794;BME280;63320;50.768;6.724;2022-11-15T10:41:19;99392.31;;;11.49;60.49
74794;BME280;63320;50.768;6.724;2022-11-15T10:43:45;99393.63;;;11.56;60.44
74794;BME280;63320;50.768;6.724;2022-11-15T10:46:27;99384.34;;;11.50;60.25
74794;BME280;63320;50.768;6.724;2022-11-15T10:48:52;99379.16;;;11.49;60.65
74794;BME280;63320;50.768;6.724;2022-11-15T10:51:21;99380.75;;;11.51;60.84
74794;BME280;63320;50.768;6.724;2022-11-15T10:53:47;99374.13;;;11.58;60.66
74794;BME280;63320;50.768;6.724;2022-11-15T10:56:14;99374.97;;;11.59;60.67
74794;BME280;63320;50.768;6.724;2022-11-15T10:58:42;99375.06;;;11.57;60.80
74794;BME280;63320;50.768;6.724;2022-11-15T11:01:10;99371.78;;;11.54;61.37
74794;BME280;63320;50.768;6.724;2022-11-15T11:03:38;99375.81;;;11.59;61.52
74794;BME280;63320;50.768;6.724;2022-11-15T11:06:07;99355.50;;;11.61;61.93
74794;BME280;63320;50.768;6.724;2022-11-15T11:08:33;99364.47;;;11.72;61.76
74794;BME280;63320;50.768;6.724;2022-11-15T11:11:00;99364.06;;;11.78;62.06
74794;BME280;63320;50.768;6.724;2022-11-15T11:13:27;99349.09;;;11.78;62.21
74794;BME280;63320;50.768;6.724;2022-11-15T11:15:56;99346.56;;;11.77;62.46
74794;BME280;63320;50.768;6.724;2022-11-15T11:18:27;99345.34;;;11.82;62.61
74794;BME280;63320;50.768;6.724;2022-11-15T11:20:57;99339.88;;;11.85;63.01
74794;BME280;63320;50.768;6.724;2022-11-15T11:23:38;99336.41;;;11.85;62.77
74794;BME280;63320;50.768;6.724;2022-11-15T11:26:18;99345.78;;;11.89;62.84
74794;BME280;63320;50.768;6.724;2022-11-15T11:28:58;99337.88;;;11.89;62.56
74794;BME280;63320;50.768;6.724;2022-11-15T11:31:35;99337.38;;;11.97;61.98
74794;BME280;63320;50.768;6.724;2022-11-15T11:34:15;99337.13;;;12.00;61.40
74794;BME280;63320;50.768;6.724;2022-11-15T11:36:45;99327.13;;;12.05;61.40
74794;BME280;63320;50.768;6.724;2022-11-15T11:39:21;99329.75;;;12.05;61.81
74794;BME280;63320;50.768;6.724;2022-11-15T11:41:55;99328.00;;;12.05;61.73
74794;BME280;63320;50.768;6.724;2022-11-15T11:44:40;99336.75;;;12.06;61.84
74794;BME280;63320;50.768;6.724;2022-11-15T11:47:10;99333.81;;;12.10;62.01
74794;BME280;63320;50.768;6.724;2022-11-15T11:49:43;99329.69;;;12.06;62.09
74794;BME280;63320;50.768;6.724;2022-11-15T11:52:14;99320.63;;;12.10;61.91
74794;BME280;63320;50.768;6.724;2022-11-15T11:54:55;99318.81;;;12.11;62.07
74794;BME280;63320;50.768;6.724;2022-11-15T11:57:31;99302.06;;;12.12;61.96
74794;BME280;63320;50.768;6.724;2022-11-15T12:00:03;99299.13;;;12.16;61.51
74794;BME280;63320;50.768;6.724;2022-11-15T12:02:31;99303.75;;;12.26;61.15
74794;BME280;63320;50.768;6.724;2022-11-15T12:05:04;99301.94;;;12.26;61.12
74794;BME280;63320;50.768;6.724;2022-11-15T12:07:35;99299.50;;;12.23;61.61
74794;BME280;63320;50.768;6.724;2022-11-15T12:10:04;99292.56;;;12.22;61.99
74794;BME280;63320;50.768;6.724;2022-11-15T12:12:38;99293.59;;;12.19;62.32
74794;BME280;63320;50.768;6.724;2022-11-15T12:15:11;99297.44;;;12.15;62.77
74794;BME280;63320;50.768;6.724;2022-11-15T12:17:39;99285.19;;;12.14;63.29
74794;BME280;63320;50.768;6.724;2022-11-15T12:20:15;99289.59;;;12.14;63.65
74794;BME280;63320;50.768;6.724;2022-11-15T12:22:46;99274.56;;;12.16;63.69
74794;BME280;63320;50.768;6.724;2022-11-15T12:25:17;99262.34;;;12.15;64.19
74794;BME280;63320;50.768;6.724;2022-11-15T12:27:47;99263.78;;;12.19;64.20
74794;BME280;63320;50.768;6.724;2022-11-15T12:30:15;99256.63;;;12.21;64.16
74794;BME280;63320;50.768;6.724;2022-11-15T12:32:50;99247.03;;;12.20;64.28
74794;BME280;63320;50.768;6.724;2022-11-15T12:35:24;99244.41;;;12.20;64.59
74794;BME280;63320;50.768;6.724;2022-11-15T12:37:52;99241.41;;;12.25;64.49
74794;BME280;63320;50.768;6.724;2022-11-15T12:40:29;99229.00;;;12.27;64.83
74794;BME280;63320;50.768;6.724;2022-11-15T12:46:02;99225.78;;;12.34;64.54
74794;BME280;63320;50.768;6.724;2022-11-15T12:48:48;99225.38;;;12.40;64.24
74794;BME280;63320;50.768;6.724;2022-11-15T12:51:14;99230.66;;;12.40;63.97
74794;BME280;63320;50.768;6.724;2022-11-15T12:53:40;99215.56;;;12.42;64.16
74794;BME280;63320;50.768;6.724;2022-11-15T12:56:18;99227.06;;;12.41;64.34
74794;BME280;63320;50.768;6.724;2022-11-15T12:58:46;99211.97;;;12.43;64.51
74794;BME280;63320;50.768;6.724;2022-11-15T13:01:57;99204.03;;;12.43;64.30
74794;BME280;63320;50.768;6.724;2022-11-15T13:04:26;99196.13;;;12.43;64.26
74794;BME280;63320;50.768;6.724;2022-11-15T13:06:53;99189.91;;;12.44;64.14
74794;BME280;63320;50.768;6.724;2022-11-15T13:09:53;99185.84;;;12.40;64.46
74794;BME280;63320;50.768;6.724;2022-11-15T13:12:49;99178.97;;;12.38;65.04
74794;BME280;63320;50.768;6.724;2022-11-15T13:15:31;99182.78;;;12.34;65.20